createdAt,value
2022-08-02T00:01:07.345Z,98379.41
2022-08-02T00:03:36.372Z,98375.88
2022-08-02T00:06:05.469Z,98375.25
2022-08-02T00:08:34.469Z,98379.97
2022-08-02T00:11:03.411Z,98381.41
2022-08-02T00:13:34.151Z,98380.16
2022-08-02T00:16:03.271Z,98372.88
2022-08-02T00:18:32.603Z,98377.22
2022-08-02T00:21:01.597Z,98368.69
2022-08-02T00:23:30.709Z,98378.84
2022-08-02T00:25:59.667Z,98373.22
2022-08-02T00:28:28.855Z,98376.69
2022-08-02T00:31:00.179Z,98371.72
2022-08-02T00:34:26.537Z,98373.34
2022-08-02T00:36:18.708Z,98379.91
2022-08-02T00:38:48.793Z,98384.00
2022-08-02T00:41:21.016Z,98381.09
2022-08-02T00:43:52.697Z,98383.53
2022-08-02T00:46:23.103Z,98378.53
2022-08-02T00:48:52.240Z,98379.75
2022-08-02T00:51:21.195Z,98384.28
2022-08-02T00:53:50.156Z,98387.78
2022-08-02T00:56:19.112Z,98387.16
2022-08-02T00:58:48.095Z,98385.88
2022-08-02T01:01:17.497Z,98385.63
2022-08-02T01:03:49.148Z,98383.31
2022-08-02T01:06:18.537Z,98387.44
2022-08-02T01:08:47.510Z,98388.66
2022-08-02T01:11:16.477Z,98377.47
2022-08-02T01:13:45.844Z,98386.56
2022-08-02T01:16:21.901Z,98390.63
2022-08-02T01:19:01.521Z,98388.97
2022-08-02T01:22:10.160Z,98387.94
2022-08-02T01:25:14.635Z,98383.59
2022-08-02T01:28:18.693Z,98380.25
2022-08-02T01:30:56.852Z,98393.69
2022-08-02T01:33:33.574Z,98391.44
2022-08-02T01:36:08.951Z,98389.34
2022-08-02T01:38:46.275Z,98386.84
2022-08-02T01:41:22.772Z,98389.94
2022-08-02T01:43:59.039Z,98396.25
2022-08-02T01:46:31.675Z,98406.09
2022-08-02T01:49:09.412Z,98410.84
2022-08-02T01:51:58.787Z,98411.66
2022-08-02T01:54:34.172Z,98413.25
2022-08-02T01:57:13.022Z,98414.31
2022-08-02T01:59:46.276Z,98422.53
2022-08-02T02:02:18.226Z,98414.69
2022-08-02T02:04:53.182Z,98417.75
2022-08-02T02:07:23.839Z,98423.88
2022-08-02T02:09:55.726Z,98422.94
2022-08-02T02:12:26.510Z,98423.94
2022-08-02T02:14:59.366Z,98414.78
2022-08-02T02:17:53.178Z,98425.09
2022-08-02T02:20:21.660Z,98421.75
2022-08-02T02:22:51.033Z,98422.97
2022-08-02T02:25:36.070Z,98425.47
2022-08-02T02:28:16.357Z,98415.09
2022-08-02T02:30:53.311Z,98422.50
2022-08-02T02:33:29.053Z,98420.38
2022-08-02T02:36:01.692Z,98414.19
2022-08-02T02:38:35.106Z,98411.50
2022-08-02T02:41:07.799Z,98409.00
2022-08-02T02:43:39.904Z,98409.22
2022-08-02T02:46:11.907Z,98421.97
2022-08-02T02:48:42.604Z,98416.50
2022-08-02T02:51:14.409Z,98412.72
2022-08-02T02:54:32.388Z,98417.44
2022-08-02T02:56:38.076Z,98412.66
2022-08-02T02:59:09.228Z,98417.56
2022-08-02T03:01:56.910Z,98410.91
2022-08-02T03:04:55.218Z,98406.91
2022-08-02T03:07:19.089Z,98401.75
2022-08-02T03:09:54.219Z,98407.50
2022-08-02T03:12:31.438Z,98408.25
2022-08-02T03:15:05.097Z,98405.47
2022-08-02T03:17:43.633Z,98402.78
2022-08-02T03:20:16.294Z,98410.56
2022-08-02T03:22:46.414Z,98410.94
2022-08-02T03:25:17.695Z,98412.09
2022-08-02T03:27:48.505Z,98417.81
2022-08-02T03:30:17.732Z,98424.88
2022-08-02T03:32:50.039Z,98419.41
2022-08-02T03:35:24.080Z,98422.06
2022-08-02T03:37:57.062Z,98424.13
2022-08-02T03:40:26.979Z,98422.16
2022-08-02T03:42:56.673Z,98432.53
2022-08-02T03:45:27.356Z,98439.19
2022-08-02T03:47:59.144Z,98432.97
2022-08-02T03:50:28.718Z,98434.84
2022-08-02T03:52:58.632Z,98436.50
2022-08-02T03:55:28.010Z,98431.50
2022-08-02T03:57:57.313Z,98437.19
2022-08-02T04:00:26.460Z,98447.78
2022-08-02T04:02:55.336Z,98445.94
2022-08-02T04:05:26.757Z,98460.72
2022-08-02T04:08:01.208Z,98452.03
2022-08-02T04:11:04.195Z,98446.69
2022-08-02T04:13:38.056Z,98454.06
2022-08-02T04:16:13.498Z,98464.78
2022-08-02T04:18:55.029Z,98463.47
2022-08-02T04:21:49.245Z,98466.81
2022-08-02T04:24:24.540Z,98467.47
2022-08-02T04:26:57.754Z,98477.50
2022-08-02T04:29:37.826Z,98483.22
2022-08-02T04:32:09.421Z,98481.66
2022-08-02T04:34:39.146Z,98489.88
2022-08-02T04:37:15.142Z,98482.78
2022-08-02T04:39:44.508Z,98494.16
2022-08-02T04:42:22.869Z,98501.19
2022-08-02T04:44:53.293Z,98500.13
2022-08-02T04:47:54.066Z,98506.78
2022-08-02T04:50:12.161Z,98506.06
2022-08-02T04:52:45.801Z,98506.06
2022-08-02T04:55:15.685Z,98503.69
2022-08-02T04:57:57.709Z,98499.63
2022-08-02T05:00:28.661Z,98498.16
2022-08-02T05:02:58.900Z,98498.16
2022-08-02T05:05:28.433Z,98497.25
2022-08-02T05:07:59.227Z,98490.97
2022-08-02T05:10:28.321Z,98498.81
2022-08-02T05:12:57.279Z,98499.28
2022-08-02T05:15:29.242Z,98511.09
2022-08-02T05:18:00.681Z,98508.22
2022-08-02T05:20:29.713Z,98518.50
2022-08-02T05:23:00.274Z,98515.19
2022-08-02T05:25:35.378Z,98506.69
2022-08-02T05:28:08.256Z,98513.97
2022-08-02T05:30:40.952Z,98510.16
2022-08-02T05:33:09.943Z,98507.88
2022-08-02T05:35:38.947Z,98504.25
2022-08-02T05:38:10.190Z,98499.81
2022-08-02T05:40:54.934Z,98504.09
2022-08-02T05:43:24.447Z,98497.13
2022-08-02T05:45:55.066Z,98491.84
2022-08-02T05:48:29.102Z,98494.84
2022-08-02T05:51:05.548Z,98494.97
2022-08-02T05:53:46.563Z,98492.56
2022-08-02T05:56:25.860Z,98493.25
2022-08-02T05:59:04.164Z,98498.56
2022-08-02T06:01:37.099Z,98505.50
2022-08-02T06:04:09.760Z,98495.59
2022-08-02T06:06:45.533Z,98496.09
2022-08-02T06:09:23.122Z,98498.88
2022-08-02T06:12:02.048Z,98500.22
2022-08-02T06:14:34.121Z,98498.84
2022-08-02T06:17:06.048Z,98494.31
2022-08-02T06:19:47.012Z,98488.78
2022-08-02T06:22:40.706Z,98481.56
2022-08-02T06:25:50.163Z,98476.06
2022-08-02T06:28:10.156Z,98480.50
2022-08-02T06:30:41.599Z,98475.16
2022-08-02T06:33:11.011Z,98482.47
2022-08-02T06:35:47.742Z,98478.34
2022-08-02T06:38:25.213Z,98477.94
2022-08-02T06:41:04.467Z,98475.50
2022-08-02T06:43:46.475Z,98481.69
2022-08-02T06:46:34.500Z,98482.53
2022-08-02T06:49:06.555Z,98487.50
2022-08-02T06:51:37.445Z,98488.28
2022-08-02T06:54:08.631Z,98476.19
2022-08-02T06:56:38.880Z,98477.78
2022-08-02T06:59:08.369Z,98479.78
2022-08-02T07:01:38.530Z,98471.81
2022-08-02T07:04:11.237Z,98478.16
2022-08-02T07:06:47.583Z,98476.19
2022-08-02T07:09:21.302Z,98471.81
2022-08-02T07:11:52.011Z,98463.72
2022-08-02T07:14:23.964Z,98467.06
2022-08-02T07:16:53.539Z,98469.94
2022-08-02T07:19:23.888Z,98463.41
2022-08-02T07:22:06.915Z,98459.34
2022-08-02T07:24:37.384Z,98459.44
2022-08-02T07:27:14.286Z,98451.97
2022-08-02T07:29:46.248Z,98449.84
2022-08-02T07:32:17.273Z,98447.63
2022-08-02T07:34:50.483Z,98463.00
2022-08-02T07:37:53.359Z,98445.69
2022-08-02T07:40:20.030Z,98446.34
2022-08-02T07:42:59.281Z,98439.94
2022-08-02T07:45:35.813Z,98441.88
2022-08-02T07:48:08.692Z,98440.28
2022-08-02T07:50:40.603Z,98440.16
2022-08-02T07:53:09.509Z,98439.72
2022-08-02T07:55:40.312Z,98445.59
2022-08-02T07:58:13.713Z,98442.16
2022-08-02T08:00:45.152Z,98445.28
2022-08-02T08:03:14.858Z,98442.97
2022-08-02T08:05:43.874Z,98442.72
2022-08-02T08:08:17.387Z,98445.59
2022-08-02T08:10:47.332Z,98441.91
2022-08-02T08:13:18.250Z,98437.09
2022-08-02T08:15:51.718Z,98439.91
2022-08-02T08:18:22.589Z,98432.19
2022-08-02T08:20:51.896Z,98434.56
2022-08-02T08:23:21.837Z,98431.88
2022-08-02T08:25:50.748Z,98438.44
2022-08-02T08:28:21.019Z,98438.69
2022-08-02T08:30:50.099Z,98436.66
2022-08-02T08:33:18.995Z,98438.22
2022-08-02T08:35:50.688Z,98435.41
2022-08-02T08:38:28.078Z,98435.25
2022-08-02T08:40:57.884Z,98429.97
2022-08-02T08:43:30.328Z,98431.22
2022-08-02T08:45:59.273Z,98436.91
2022-08-02T08:48:31.865Z,98431.22
2022-08-02T08:51:17.438Z,98424.16
2022-08-02T08:53:50.886Z,98433.91
2022-08-02T08:56:20.433Z,98439.75
2022-08-02T08:59:11.884Z,98437.44
2022-08-02T09:01:52.147Z,98440.50
2022-08-02T09:04:22.748Z,98436.81
2022-08-02T09:06:51.989Z,98433.84
2022-08-02T09:09:21.228Z,98439.22
2022-08-02T09:11:50.423Z,98437.34
2022-08-02T09:14:32.701Z,98431.53
2022-08-02T09:17:13.292Z,98437.97
2022-08-02T09:19:46.202Z,98437.25
2022-08-02T09:22:16.863Z,98431.91
2022-08-02T09:24:47.886Z,98427.13
2022-08-02T09:27:19.212Z,98416.97
2022-08-02T09:30:13.305Z,98416.06
2022-08-02T09:32:48.151Z,98423.31
2022-08-02T09:36:07.146Z,98416.22
2022-08-02T09:38:22.457Z,98417.31
2022-08-02T09:40:55.011Z,98412.66
2022-08-02T09:43:35.633Z,98408.94
2022-08-02T09:46:18.327Z,98405.88
2022-08-02T09:48:55.947Z,98402.47
2022-08-02T09:51:27.093Z,98392.28
2022-08-02T09:54:07.974Z,98388.25
2022-08-02T09:56:47.941Z,98394.69
2022-08-02T09:59:18.450Z,98400.38
2022-08-02T10:01:51.549Z,98390.31
2022-08-02T10:04:33.917Z,98387.94
2022-08-02T10:07:04.911Z,98378.84
2022-08-02T10:09:34.719Z,98376.75
2022-08-02T10:12:04.861Z,98371.84
2022-08-02T10:14:35.877Z,98377.72
2022-08-02T10:17:07.364Z,98379.16
2022-08-02T10:20:01.731Z,98381.28
2022-08-02T10:22:27.414Z,98377.81
2022-08-02T10:24:57.043Z,98367.09
2022-08-02T10:27:48.877Z,98370.34
2022-08-02T10:30:19.781Z,98366.59
2022-08-02T10:32:53.923Z,98370.44
2022-08-02T10:35:26.622Z,98369.50
2022-08-02T10:38:01.441Z,98371.50
2022-08-02T10:40:45.242Z,98359.59
2022-08-02T10:43:34.799Z,98356.28
2022-08-02T10:46:22.146Z,98357.16
2022-08-02T10:52:21.396Z,98350.78
2022-08-02T10:54:56.681Z,98347.66
2022-08-02T10:57:27.711Z,98338.94
2022-08-02T10:59:57.499Z,98347.09
2022-08-02T11:02:53.265Z,98344.31
2022-08-02T11:05:43.130Z,98343.28
2022-08-02T11:08:25.126Z,98328.63
2022-08-02T11:10:59.044Z,98328.84
2022-08-02T11:13:30.123Z,98322.81
2022-08-02T11:16:05.342Z,98325.38
2022-08-02T11:19:06.647Z,98323.72
2022-08-02T11:21:37.985Z,98331.28
2022-08-02T11:24:27.890Z,98333.31
2022-08-02T11:26:57.608Z,98318.16
2022-08-02T11:29:39.083Z,98319.09
2022-08-02T11:32:16.151Z,98322.69
2022-08-02T11:34:47.474Z,98314.78
2022-08-02T11:37:30.601Z,98315.09
2022-08-02T11:39:59.870Z,98319.34
2022-08-02T11:42:37.132Z,98314.94
2022-08-02T11:45:08.246Z,98304.94
2022-08-02T11:47:47.206Z,98300.38
2022-08-02T11:50:17.903Z,98300.03
2022-08-02T11:52:48.888Z,98297.13
2022-08-02T11:55:18.218Z,98296.06
2022-08-02T11:58:01.509Z,98298.81
2022-08-02T12:00:34.667Z,98294.31
2022-08-02T12:03:04.187Z,98287.91
2022-08-02T12:08:26.930Z,98281.81
2022-08-02T12:11:01.669Z,98286.75
2022-08-02T12:13:42.447Z,98280.56
2022-08-02T12:16:33.009Z,98285.16
2022-08-02T12:19:21.578Z,98276.53
2022-08-02T12:22:07.440Z,98267.84
2022-08-02T12:24:39.049Z,98271.03
2022-08-02T12:27:09.131Z,98264.94
2022-08-02T12:29:58.544Z,98276.88
2022-08-02T12:32:29.203Z,98273.88
2022-08-02T12:35:11.285Z,98274.97
2022-08-02T12:37:42.374Z,98280.22
2022-08-02T12:40:25.159Z,98265.34
2022-08-02T12:42:58.768Z,98271.06
2022-08-02T12:45:41.329Z,98262.84
2022-08-02T12:48:11.835Z,98265.94
2022-08-02T12:50:41.730Z,98269.31
2022-08-02T12:53:12.797Z,98264.34
2022-08-02T12:55:59.401Z,98257.84
2022-08-02T12:58:32.026Z,98248.91
2022-08-02T13:01:02.718Z,98248.63
2022-08-02T13:04:10.270Z,98252.06
2022-08-02T13:06:40.880Z,98251.75
2022-08-02T13:09:17.480Z,98245.94
2022-08-02T13:11:48.167Z,98246.75
2022-08-02T13:14:17.480Z,98242.81
2022-08-02T13:16:49.988Z,98251.41
2022-08-02T13:19:18.955Z,98245.88
2022-08-02T13:22:02.797Z,98253.50
2022-08-02T13:24:39.850Z,98244.72
2022-08-02T13:27:25.925Z,98244.19
2022-08-02T13:29:58.456Z,98243.78
2022-08-02T13:32:29.173Z,98244.00
2022-08-02T13:34:59.237Z,98240.59
2022-08-02T13:37:28.525Z,98240.28
2022-08-02T13:40:21.150Z,98247.59
2022-08-02T13:42:49.432Z,98245.44
2022-08-02T13:45:18.590Z,98232.47
2022-08-02T13:48:04.750Z,98232.72
2022-08-02T13:50:34.607Z,98231.13
2022-08-02T13:53:03.575Z,98229.00
2022-08-02T13:55:32.678Z,98219.50
2022-08-02T13:58:04.830Z,98221.88
2022-08-02T14:00:35.305Z,98227.72
2022-08-02T14:03:07.450Z,98217.97
2022-08-02T14:05:48.158Z,98222.84
2022-08-02T14:08:19.795Z,98216.84
2022-08-02T14:10:50.422Z,98208.19
2022-08-02T14:13:21.318Z,98209.97
2022-08-02T14:15:50.341Z,98218.41
2022-08-02T14:18:19.371Z,98214.44
2022-08-02T14:20:48.537Z,98210.19
2022-08-02T14:23:17.506Z,98213.47
2022-08-02T14:25:46.441Z,98206.28
2022-08-02T14:28:15.653Z,98209.53
2022-08-02T14:30:46.556Z,98206.25
2022-08-02T14:33:15.729Z,98196.25
2022-08-02T14:35:44.707Z,98199.25
2022-08-02T14:38:13.706Z,98198.84
2022-08-02T14:40:42.766Z,98190.28
2022-08-02T14:43:12.831Z,98189.03
2022-08-02T14:45:43.354Z,98191.13
2022-08-02T14:48:13.733Z,98193.44
2022-08-02T14:50:42.696Z,98181.94
2022-08-02T14:53:12.080Z,98192.75
2022-08-02T14:55:43.525Z,98188.78
2022-08-02T14:58:12.592Z,98182.16
2022-08-02T15:00:42.133Z,98186.34
2022-08-02T15:03:15.299Z,98180.78
2022-08-02T15:05:44.196Z,98179.38
2022-08-02T15:08:16.992Z,98183.34
2022-08-02T15:10:46.651Z,98179.38
2022-08-02T15:13:15.542Z,98178.56
2022-08-02T15:15:44.452Z,98178.91
2022-08-02T15:18:15.726Z,98175.53
2022-08-02T15:20:57.162Z,98172.63
2022-08-02T15:23:37.617Z,98171.00
2022-08-02T15:26:08.192Z,98177.84
2022-08-02T15:28:38.539Z,98177.50
2022-08-02T15:31:07.507Z,98172.75
2022-08-02T15:33:37.798Z,98170.78
2022-08-02T15:36:07.797Z,98174.97
2022-08-02T15:38:37.115Z,98166.63
2022-08-02T15:41:06.315Z,98166.63
2022-08-02T15:44:00.033Z,98173.38
2022-08-02T15:46:32.139Z,98172.78
2022-08-02T15:49:02.802Z,98170.19
2022-08-02T15:51:31.991Z,98163.59
2022-08-02T15:54:01.009Z,98170.53
2022-08-02T15:56:30.024Z,98172.88
2022-08-02T15:58:59.102Z,98168.22
2022-08-02T16:01:36.947Z,98166.69
2022-08-02T16:04:08.566Z,98171.56
2022-08-02T16:06:37.754Z,98169.91
2022-08-02T16:09:06.909Z,98172.53
2022-08-02T16:11:36.027Z,98172.19
2022-08-02T16:14:08.130Z,98178.53
2022-08-02T16:16:39.125Z,98180.41
2022-08-02T16:19:47.287Z,98178.91
2022-08-02T16:21:57.978Z,98170.78
2022-08-02T16:24:27.239Z,98166.59
2022-08-02T16:26:58.665Z,98165.00
2022-08-02T16:29:27.579Z,98165.81
2022-08-02T16:32:02.572Z,98169.28
2022-08-02T16:34:50.819Z,98165.47
2022-08-02T16:37:27.392Z,98169.97
2022-08-02T16:40:16.304Z,98164.75
2022-08-02T16:45:36.223Z,98160.25
2022-08-02T16:48:07.677Z,98160.13
2022-08-02T16:50:39.754Z,98162.66
2022-08-02T16:53:08.830Z,98161.53
2022-08-02T16:55:40.134Z,98157.38
2022-08-02T16:58:20.758Z,98159.13
2022-08-02T17:00:49.738Z,98156.84
2022-08-02T17:03:18.817Z,98166.72
2022-08-02T17:05:56.362Z,98161.81
2022-08-02T17:08:31.875Z,98158.59
2022-08-02T17:11:03.276Z,98161.41
2022-08-02T17:13:34.199Z,98166.63
2022-08-02T17:16:20.514Z,98174.72
2022-08-02T17:18:56.361Z,98169.25
2022-08-02T17:21:26.704Z,98170.75
2022-08-02T17:24:06.372Z,98164.56
2022-08-02T17:26:39.072Z,98169.44
2022-08-02T17:29:15.570Z,98167.06
2022-08-02T17:32:05.006Z,98169.97
2022-08-02T17:34:37.774Z,98175.16
2022-08-02T17:37:08.472Z,98169.56
2022-08-02T17:39:44.198Z,98175.19
2022-08-02T17:42:23.292Z,98169.75
2022-08-02T17:44:54.443Z,98177.50
2022-08-02T17:47:31.003Z,98179.38
2022-08-02T17:50:00.648Z,98181.44
2022-08-02T17:52:52.469Z,98184.03
2022-08-02T17:55:23.373Z,98185.03
2022-08-02T17:57:57.194Z,98183.19
2022-08-02T18:00:34.368Z,98196.25
2022-08-02T18:03:07.988Z,98186.13
2022-08-02T18:05:53.190Z,98188.06
2022-08-02T18:08:25.583Z,98192.44
2022-08-02T18:10:57.171Z,98200.59
2022-08-02T18:13:32.720Z,98203.53
2022-08-02T18:16:03.208Z,98203.41
2022-08-02T18:18:32.938Z,98207.69
2022-08-02T18:26:28.410Z,98212.50
2022-08-02T18:28:59.046Z,98213.16
2022-08-02T18:31:28.131Z,98205.59
2022-08-02T18:34:02.303Z,98211.22
2022-08-02T18:36:32.495Z,98212.97
2022-08-02T18:39:08.301Z,98209.22
2022-08-02T18:41:38.889Z,98209.34
2022-08-02T18:44:07.874Z,98219.50
2022-08-02T18:46:39.849Z,98224.19
2022-08-02T18:49:14.799Z,98227.00
2022-08-02T18:51:44.813Z,98224.28
2022-08-02T18:54:14.691Z,98228.66
2022-08-02T18:56:47.240Z,98228.94
2022-08-02T18:59:16.859Z,98234.66
2022-08-02T19:01:50.963Z,98229.94
2022-08-02T19:04:26.882Z,98233.47
2022-08-02T19:07:07.328Z,98234.00
2022-08-02T19:09:39.997Z,98241.88
2022-08-02T19:12:12.457Z,98239.56
2022-08-02T19:14:42.054Z,98241.38
2022-08-02T19:17:53.339Z,98238.00
2022-08-02T19:20:00.153Z,98251.53
2022-08-02T19:22:29.914Z,98249.19
2022-08-02T19:25:01.038Z,98254.00
2022-08-02T19:27:33.194Z,98251.13
2022-08-02T19:30:03.831Z,98257.50
2022-08-02T19:32:41.854Z,98260.09
2022-08-02T19:35:30.421Z,98269.44
2022-08-02T19:38:09.247Z,98259.47
2022-08-02T19:40:41.793Z,98255.19
2022-08-02T19:44:23.317Z,98268.59
2022-08-02T19:46:02.733Z,98268.47
2022-08-02T19:48:31.614Z,98269.09
2022-08-02T19:51:02.125Z,98271.84
2022-08-02T19:53:47.936Z,98272.41
2022-08-02T19:56:25.799Z,98279.53
2022-08-02T19:58:58.034Z,98282.25
2022-08-02T20:01:38.367Z,98286.13
2022-08-02T20:04:13.401Z,98288.06
2022-08-02T20:06:46.071Z,98282.94
2022-08-02T20:09:20.995Z,98276.72
2022-08-02T20:11:54.742Z,98287.41
2022-08-02T20:14:27.992Z,98289.34
2022-08-02T20:16:58.109Z,98285.03
2022-08-02T20:19:29.072Z,98280.69
2022-08-02T20:21:59.659Z,98288.84
2022-08-02T20:24:30.633Z,98288.88
2022-08-02T20:27:00.785Z,98284.31
2022-08-02T20:29:43.245Z,98285.72
2022-08-02T20:32:21.353Z,98284.44
2022-08-02T20:34:52.421Z,98279.88
2022-08-02T20:40:17.181Z,98287.72
2022-08-02T20:42:48.455Z,98288.91
2022-08-02T20:45:19.687Z,98294.28
2022-08-02T20:47:50.885Z,98290.31
2022-08-02T20:50:39.518Z,98289.22
2022-08-02T20:53:23.992Z,98295.19
2022-08-02T20:55:56.791Z,98295.13
2022-08-02T20:58:26.958Z,98294.88
2022-08-02T21:00:59.925Z,98288.13
2022-08-02T21:03:39.543Z,98290.09
2022-08-02T21:06:11.527Z,98291.69
2022-08-02T21:08:46.078Z,98290.97
2022-08-02T21:11:16.600Z,98290.44
2022-08-02T21:13:46.884Z,98285.78
2022-08-02T21:16:35.530Z,98297.97
2022-08-02T21:19:08.008Z,98288.84
2022-08-02T21:21:39.373Z,98294.81
2022-08-02T21:24:11.308Z,98285.34
2022-08-02T21:26:41.906Z,98288.34
2022-08-02T21:29:13.671Z,98292.97
2022-08-02T21:31:44.965Z,98290.16
2022-08-02T21:34:26.777Z,98289.97
2022-08-02T21:36:57.009Z,98290.06
2022-08-02T21:39:26.066Z,98296.13
2022-08-02T21:41:55.205Z,98289.56
2022-08-02T21:44:24.596Z,98295.03
2022-08-02T21:46:57.264Z,98293.41
2022-08-02T21:50:09.170Z,98297.00
2022-08-02T21:52:17.445Z,98293.06
2022-08-02T21:54:47.032Z,98297.47
2022-08-02T21:57:17.466Z,98293.16
2022-08-02T21:59:48.028Z,98294.03
2022-08-02T22:02:30.703Z,98294.53
2022-08-02T22:05:02.631Z,98288.38
2022-08-02T22:07:38.147Z,98294.66
2022-08-02T22:10:10.077Z,98293.03
2022-08-02T22:12:39.284Z,98295.53
2022-08-02T22:15:10.541Z,98294.75
2022-08-02T22:17:51.903Z,98293.09
2022-08-02T22:20:23.223Z,98290.25
2022-08-02T22:22:53.401Z,98297.34
2022-08-02T22:25:31.189Z,98299.22
2022-08-02T22:28:38.617Z,98302.97
2022-08-02T22:30:59.947Z,98298.69
2022-08-02T22:36:38.696Z,98295.81
2022-08-02T22:42:06.818Z,98304.56
2022-08-02T22:44:36.595Z,98311.84
2022-08-02T22:47:14.894Z,98306.25
2022-08-02T22:49:51.896Z,98317.28
2022-08-02T22:52:23.918Z,98319.53
2022-08-02T22:54:54.787Z,98313.75
2022-08-02T22:57:29.877Z,98315.59
2022-08-02T22:58:42.023Z,98158.84
2022-08-02T22:59:05.992Z,98290.44
2022-08-02T22:59:09.692Z,98309.09
2022-08-02T22:59:12.506Z,98300.56
2022-08-02T23:00:00.910Z,98314.78
2022-08-02T23:02:30.165Z,98317.69
2022-08-02T23:05:00.480Z,98321.22
2022-08-02T23:07:29.542Z,98326.19
2022-08-02T23:10:09.388Z,98320.81
2022-08-02T23:12:40.609Z,98321.66
2022-08-02T23:15:11.619Z,98318.72
2022-08-02T23:18:03.864Z,98314.16
2022-08-02T23:20:34.733Z,98316.47
2022-08-02T23:23:03.846Z,98307.97
2022-08-02T23:25:40.594Z,98319.16
2022-08-02T23:28:09.395Z,98312.09
2022-08-02T23:30:38.547Z,98316.25
2022-08-02T23:33:07.497Z,98325.97
2022-08-02T23:35:37.745Z,98318.31
2022-08-02T23:38:06.744Z,98316.19
2022-08-02T23:40:40.170Z,98321.13
2022-08-02T23:43:14.050Z,98321.94
2022-08-02T23:45:46.139Z,98320.31
2022-08-02T23:48:15.440Z,98321.72
2022-08-02T23:50:45.846Z,98326.06
2022-08-02T23:53:14.715Z,98326.88
2022-08-02T23:55:43.602Z,98331.00
2022-08-02T23:58:13.459Z,98330.16
